Time;durP1;ratioP1;P1;durP2;ratioP2;P2;SDS_P1;SDS_P2;PMS_P1;PMS_P2;Temp;Humidity;BMP_temperature;BMP_pressure;BME280_temperature;BME280_humidity;BME280_pressure;Samples;Min_cycle;Max_cycle;Signal;HPM_P1;HPM_P2
2023/01/31 00:00:07;;;;;;;20.10;16.03;;;;;;;1.55;53.48;94417.88;5048960;28;20238;-68
2023/01/31 00:02:33;;;;;;;21.70;15.73;;;;;;;1.47;53.62;94425.38;5043968;28;20192;-68
2023/01/31 00:04:58;;;;;;;23.33;16.40;;;;;;;1.55;53.64;94428.25;5043208;28;20214;-68
2023/01/31 00:07:25;;;;;;;23.37;15.43;;;;;;;1.54;53.57;94437.78;5044186;28;20300;-68
2023/01/31 00:09:50;;;;;;;22.00;16.33;;;;;;;1.55;54.10;94436.03;5048132;28;20229;-68
2023/01/31 00:12:15;;;;;;;21.93;15.60;;;;;;;1.59;53.85;94442.66;5046963;28;20245;-68
2023/01/31 00:14:41;;;;;;;22.37;16.40;;;;;;;1.65;53.40;94431.00;5046936;28;20190;-68
2023/01/31 00:17:06;;;;;;;20.83;15.97;;;;;;;1.67;53.11;94436.91;5045634;28;20245;-68
2023/01/31 00:19:33;;;;;;;20.17;15.00;;;;;;;1.68;53.21;94429.00;5047329;28;20294;-68
2023/01/31 00:21:59;;;;;;;22.67;15.13;;;;;;;1.63;53.31;94428.53;5048120;28;20233;-68
2023/01/31 00:24:25;;;;;;;19.10;14.63;;;;;;;1.64;53.37;94424.19;5044520;28;20233;-68
2023/01/31 00:26:55;;;;;;;18.17;14.67;;;;;;;1.63;53.22;94418.19;5045069;28;20241;-68
2023/01/31 00:29:24;;;;;;;22.57;15.77;;;;;;;1.59;53.80;94421.09;5046958;28;20312;-68
2023/01/31 00:31:50;;;;;;;22.23;16.10;;;;;;;1.63;53.97;94418.19;5044596;28;20232;-68
2023/01/31 00:34:16;;;;;;;20.87;15.63;;;;;;;1.69;53.78;94415.13;5045603;28;20271;-68
2023/01/31 00:36:41;;;;;;;24.43;15.33;;;;;;;1.55;53.63;94415.28;5049650;28;20221;-67
2023/01/31 00:39:09;;;;;;;17.97;14.03;;;;;;;1.29;53.86;94441.34;5044676;28;20174;-67
2023/01/31 00:41:36;;;;;;;21.70;14.97;;;;;;;1.28;54.32;94429.34;5044732;28;20205;-68
2023/01/31 00:44:03;;;;;;;18.37;14.40;;;;;;;1.40;54.11;94429.38;5046415;28;20213;-68
2023/01/31 00:46:29;;;;;;;20.97;14.43;;;;;;;1.48;54.13;94434.84;5045195;28;20244;-67
2023/01/31 00:48:55;;;;;;;19.07;14.20;;;;;;;1.41;53.71;94443.97;5046759;28;20560;-67
2023/01/31 00:51:22;;;;;;;19.30;14.20;;;;;;;1.21;53.95;94438.47;5044405;28;20264;-67
2023/01/31 00:53:49;;;;;;;20.33;14.43;;;;;;;1.16;54.17;94425.03;5045794;28;20212;-68
2023/01/31 00:56:17;;;;;;;19.07;13.73;;;;;;;1.39;53.48;94433.75;5044333;28;20302;-68
2023/01/31 00:58:43;;;;;;;20.03;13.83;;;;;;;1.50;53.39;94418.25;5044182;28;20225;-68
2023/01/31 01:01:15;;;;;;;18.03;14.03;;;;;;;1.57;52.86;94417.78;5044024;28;20243;-69
2023/01/31 01:03:42;;;;;;;19.73;14.13;;;;;;;1.51;53.34;94419.06;5046873;28;20224;-68
2023/01/31 01:06:08;;;;;;;19.97;14.27;;;;;;;1.35;53.53;94413.34;5042829;28;20273;-67
2023/01/31 01:08:37;;;;;;;19.17;14.27;;;;;;;1.41;53.80;94439.63;5044960;28;20247;-68
2023/01/31 01:11:16;;;;;;;19.30;13.63;;;;;;;1.01;55.07;94446.81;5047045;28;20213;-68
2023/01/31 01:13:43;;;;;;;18.47;13.60;;;;;;;1.21;54.91;94445.41;5036155;28;20240;-68
2023/01/31 01:16:15;;;;;;;19.67;14.20;;;;;;;1.02;55.31;94448.47;5047681;28;20218;-68
2023/01/31 01:18:41;;;;;;;19.27;14.37;;;;;;;1.05;55.18;94443.09;5037400;28;20264;-68
2023/01/31 01:21:13;;;;;;;18.53;14.67;;;;;;;1.19;55.18;94442.94;5044456;28;20185;-68
2023/01/31 01:23:39;;;;;;;22.10;15.33;;;;;;;1.14;54.99;94424.28;5046763;28;20235;-68
2023/01/31 01:26:11;;;;;;;22.10;15.17;;;;;;;1.26;54.67;94420.03;5043149;28;20278;-68
2023/01/31 01:28:36;;;;;;;19.70;14.87;;;;;;;1.29;54.12;94409.44;5044886;28;20217;-69
2023/01/31 01:31:06;;;;;;;18.37;13.50;;;;;;;1.23;53.92;94415.88;5040818;28;20233;-68
2023/01/31 01:33:32;;;;;;;15.87;11.30;;;;;;;1.05;52.74;94412.03;5029337;28;20232;-68
2023/01/31 01:36:06;;;;;;;13.27;10.30;;;;;;;1.18;51.01;94407.63;5045598;28;20189;-68
2023/01/31 01:38:35;;;;;;;16.70;10.50;;;;;;;1.24;50.26;94402.00;5032691;28;20237;-68
2023/01/31 01:41:01;;;;;;;12.07;9.53;;;;;;;1.32;50.06;94399.66;5042693;28;20225;-68
2023/01/31 01:43:47;;;;;;;11.83;9.10;;;;;;;1.61;47.80;94404.50;5047088;28;20233;-68
2023/01/31 01:46:17;;;;;;;11.47;7.67;;;;;;;1.47;47.48;94391.72;5047147;28;20253;-68
2023/01/31 01:48:45;;;;;;;9.20;6.87;;;;;;;1.61;46.08;94399.31;5048692;28;20217;-68
2023/01/31 01:51:13;;;;;;;8.23;6.37;;;;;;;1.63;45.64;94404.38;5047040;28;20278;-68
2023/01/31 01:53:42;;;;;;;9.43;6.67;;;;;;;1.59;45.68;94402.97;5052280;28;20300;-67
2023/01/31 01:56:14;;;;;;;9.13;6.47;;;;;;;1.66;45.29;94391.22;5047094;28;20221;-68
2023/01/31 01:59:02;;;;;;;6.20;4.87;;;;;;;1.67;44.60;94404.03;5044948;28;20263;-68
2023/01/31 02:01:32;;;;;;;6.93;5.20;;;;;;;1.67;44.59;94403.22;5050429;28;20228;-68
2023/01/31 02:03:58;;;;;;;7.50;5.33;;;;;;;1.79;44.28;94396.28;5047326;28;20220;-68
2023/01/31 02:06:24;;;;;;;7.60;5.60;;;;;;;1.72;44.55;94393.34;5040913;28;20311;-67
2023/01/31 02:08:50;;;;;;;7.77;5.77;;;;;;;1.74;44.36;94392.28;5048376;28;20587;-69
2023/01/31 02:11:22;;;;;;;6.13;5.20;;;;;;;1.86;43.56;94400.09;5050894;28;20284;-68
2023/01/31 02:13:51;;;;;;;6.87;5.03;;;;;;;1.94;43.48;94415.91;5046910;28;20249;-67
2023/01/31 02:16:17;;;;;;;6.27;4.93;;;;;;;1.96;43.17;94403.66;5046123;28;20260;-67
2023/01/31 02:18:43;;;;;;;6.93;5.20;;;;;;;1.98;43.58;94401.78;5051568;28;20248;-67
2023/01/31 02:21:14;;;;;;;6.83;5.37;;;;;;;1.90;43.35;94414.50;5046986;28;20192;-67
2023/01/31 02:23:59;;;;;;;6.37;4.90;;;;;;;1.77;43.45;94409.38;5049287;28;20253;-66
2023/01/31 02:26:35;;;;;;;6.33;5.23;;;;;;;1.77;43.54;94420.56;5046573;28;20216;-67
2023/01/31 02:29:21;;;;;;;7.73;5.33;;;;;;;1.93;43.31;94409.88;5043173;28;20221;-66
2023/01/31 02:32:05;;;;;;;7.93;5.13;;;;;;;1.77;43.45;94414.56;5047886;28;20229;-66
2023/01/31 02:34:38;;;;;;;6.07;5.07;;;;;;;1.79;42.94;94394.50;5044985;28;20309;-66
2023/01/31 02:37:28;;;;;;;7.37;5.37;;;;;;;1.62;43.42;94403.53;5043222;28;20248;-67
2023/01/31 02:40:05;;;;;;;8.30;6.00;;;;;;;1.66;43.45;94409.34;5045822;28;20214;-65
2023/01/31 02:43:00;;;;;;;7.17;5.30;;;;;;;1.70;43.51;94411.59;5047827;28;20238;-66
2023/01/31 02:45:34;;;;;;;7.37;5.67;;;;;;;1.77;43.17;94415.38;5049138;28;20230;-66
2023/01/31 02:48:03;;;;;;;6.97;5.47;;;;;;;1.72;43.24;94421.84;5050529;28;20197;-67
2023/01/31 02:50:46;;;;;;;6.03;5.10;;;;;;;1.86;43.13;94410.47;5042829;28;20217;-67
2023/01/31 02:53:23;;;;;;;9.13;6.37;;;;;;;1.90;43.37;94417.09;5044024;28;20214;-61
2023/01/31 02:56:18;;;;;;;7.30;6.00;;;;;;;1.83;43.49;94426.25;5044719;28;20229;-61
2023/01/31 02:59:10;;;;;;;9.03;6.13;;;;;;;1.72;44.72;94427.84;5047984;28;20252;-63
2023/01/31 03:01:43;;;;;;;8.57;5.73;;;;;;;1.87;44.17;94441.47;5054760;28;20234;-63
2023/01/31 03:04:11;;;;;;;8.30;6.23;;;;;;;1.81;45.22;94448.84;5047064;28;20228;-63
2023/01/31 03:06:36;;;;;;;8.80;5.90;;;;;;;1.80;45.15;94447.22;5046901;28;20225;-67
2023/01/31 03:09:21;;;;;;;9.33;6.83;;;;;;;1.65;45.66;94457.75;5060802;28;20194;-63
2023/01/31 03:12:05;;;;;;;8.83;7.20;;;;;;;1.84;45.30;94470.19;5045471;28;20236;-61
2023/01/31 03:14:58;;;;;;;10.03;6.40;;;;;;;1.68;46.36;94470.47;5048210;28;20256;-61
2023/01/31 03:17:51;;;;;;;9.43;6.97;;;;;;;2.08;45.95;94479.69;5044318;28;20237;-67
2023/01/31 03:20:27;;;;;;;9.63;6.70;;;;;;;1.68;46.82;94475.66;5047168;28;20240;-66
2023/01/31 03:23:07;;;;;;;9.07;6.77;;;;;;;1.65;47.29;94483.66;5044278;28;20221;-67
2023/01/31 03:25:36;;;;;;;10.07;6.83;;;;;;;1.66;47.71;94468.97;5043084;28;20568;-67
2023/01/31 03:28:08;;;;;;;9.67;6.50;;;;;;;1.71;47.37;94478.06;5049142;28;20232;-66
2023/01/31 03:30:41;;;;;;;7.57;6.40;;;;;;;1.83;47.43;94480.69;5045424;28;20244;-67
2023/01/31 03:33:29;;;;;;;8.93;6.57;;;;;;;1.63;48.69;94475.19;5044810;28;20185;-68
2023/01/31 03:36:28;;;;;;;10.03;7.03;;;;;;;1.66;48.73;94485.34;5028015;28;20337;-68
2023/01/31 03:39:04;;;;;;;9.97;7.90;;;;;;;1.63;48.84;94503.69;5043927;28;20189;-67
2023/01/31 03:41:48;;;;;;;11.73;7.50;;;;;;;1.61;50.02;94492.59;5051796;28;20220;-67
2023/01/31 03:44:39;;;;;;;8.27;6.93;;;;;;;1.44;51.10;94505.94;5049347;28;20259;-67
2023/01/31 03:47:14;;;;;;;9.77;7.40;;;;;;;1.59;50.51;94524.75;4982965;28;20230;-67
2023/01/31 03:49:42;;;;;;;9.20;7.20;;;;;;;1.64;50.89;94515.72;4992801;28;20239;-68
2023/01/31 03:52:11;;;;;;;9.40;7.67;;;;;;;1.64;51.55;94513.13;4994015;28;20234;-68
2023/01/31 03:54:43;;;;;;;10.43;7.87;;;;;;;1.50;51.74;94515.88;4992286;28;20228;-68
2023/01/31 03:57:19;;;;;;;10.97;8.30;;;;;;;1.62;52.06;94534.91;4973796;28;20205;-68
2023/01/31 03:59:52;;;;;;;10.17;7.73;;;;;;;1.68;52.18;94521.47;4995825;28;20193;-69
2023/01/31 04:02:19;;;;;;;10.80;8.47;;;;;;;1.59;52.63;94525.56;4972692;28;20228;-67
2023/01/31 04:04:51;;;;;;;11.53;8.50;;;;;;;1.41;53.33;94519.91;4981541;28;20242;-67
2023/01/31 04:07:17;;;;;;;12.43;8.47;;;;;;;1.42;53.38;94528.56;4998199;28;20230;-67
2023/01/31 04:09:42;;;;;;;11.93;9.00;;;;;;;1.55;53.53;94526.72;4995581;28;20228;-67
2023/01/31 04:12:12;;;;;;;12.33;9.77;;;;;;;1.40;54.52;94535.59;4971347;28;20212;-67
2023/01/31 04:14:37;;;;;;;11.63;8.90;;;;;;;1.42;54.79;94531.13;4994642;28;20195;-69
2023/01/31 04:17:03;;;;;;;11.07;8.30;;;;;;;1.56;54.22;94532.75;4978598;28;20288;-68
2023/01/31 04:19:28;;;;;;;11.73;9.13;;;;;;;1.36;55.00;94524.59;4972612;28;20226;-68
2023/01/31 04:21:54;;;;;;;11.50;8.70;;;;;;;1.15;56.08;94528.69;4973673;28;20274;-68
2023/01/31 04:24:19;;;;;;;10.90;8.93;;;;;;;1.17;56.07;94538.00;5024895;28;20239;-69
2023/01/31 04:26:44;;;;;;;11.17;8.73;;;;;;;1.23;56.42;94539.34;5050067;28;20201;-67
2023/01/31 04:29:10;;;;;;;11.17;8.73;;;;;;;1.07;56.78;94544.78;5049438;28;20221;-68
2023/01/31 04:31:35;;;;;;;13.20;10.00;;;;;;;1.16;57.16;94538.97;5046973;28;20232;-68
2023/01/31 04:34:01;;;;;;;14.23;10.63;;;;;;;1.12;57.21;94549.63;5048652;28;20224;-68
2023/01/31 04:36:26;;;;;;;12.00;8.93;;;;;;;1.11;57.65;94598.00;5047442;28;20277;-69
2023/01/31 04:38:52;;;;;;;13.77;10.40;;;;;;;0.93;58.35;94552.66;5046708;28;20308;-67
2023/01/31 04:41:18;;;;;;;11.67;9.63;;;;;;;0.94;58.25;94568.09;5047768;28;20226;-69
2023/01/31 04:43:43;;;;;;;11.93;9.93;;;;;;;0.78;59.22;94559.72;5047069;28;20217;-68
2023/01/31 04:46:09;;;;;;;15.40;10.43;;;;;;;0.73;59.28;94572.13;5046718;28;20311;-68
2023/01/31 04:48:34;;;;;;;14.80;10.27;;;;;;;0.86;59.23;94571.22;5045549;28;21446;-68
2023/01/31 04:51:00;;;;;;;12.87;10.47;;;;;;;0.87;59.53;94585.78;5045465;28;20316;-67
2023/01/31 04:53:26;;;;;;;12.70;9.90;;;;;;;1.12;58.79;94580.69;5048521;28;20279;-67
2023/01/31 04:55:54;;;;;;;12.13;9.57;;;;;;;1.06;58.85;94569.84;5045386;28;20628;-68
2023/01/31 04:58:21;;;;;;;13.53;10.53;;;;;;;0.78;59.66;94570.06;5048142;28;20217;-70
2023/01/31 05:00:46;;;;;;;12.63;10.03;;;;;;;0.70;60.37;94567.19;5048365;28;20225;-69
2023/01/31 05:03:12;;;;;;;13.80;9.33;;;;;;;0.78;60.17;94577.84;5051168;28;20259;-70
2023/01/31 05:05:37;;;;;;;12.50;9.47;;;;;;;0.96;59.52;94576.56;5049694;28;20248;-64
2023/01/31 05:08:03;;;;;;;12.50;9.40;;;;;;;0.82;60.04;94572.34;5049358;28;20221;-64
2023/01/31 05:10:28;;;;;;;13.73;10.07;;;;;;;0.96;59.32;94573.16;5046317;28;20230;-64
2023/01/31 05:12:54;;;;;;;12.87;9.97;;;;;;;1.03;59.31;94567.47;5051594;28;20227;-64
2023/01/31 05:15:20;;;;;;;12.43;9.17;;;;;;;0.94;59.67;94567.28;5055109;28;20224;-64
2023/01/31 05:17:52;;;;;;;13.67;10.33;;;;;;;0.84;59.66;94569.66;5054491;28;20228;-63
2023/01/31 05:20:17;;;;;;;11.83;9.67;;;;;;;1.02;59.46;94557.22;5069294;28;20370;-69
2023/01/31 05:22:47;;;;;;;12.40;9.43;;;;;;;0.84;59.64;94564.47;5054661;28;20327;-71
2023/01/31 05:25:13;;;;;;;10.93;9.07;;;;;;;0.53;60.79;94571.69;5048142;28;20291;-69
2023/01/31 05:27:38;;;;;;;12.73;9.80;;;;;;;0.74;60.17;94568.63;5053947;28;20224;-68
2023/01/31 05:30:04;;;;;;;11.00;8.83;;;;;;;1.07;59.11;94587.03;5054976;28;20209;-69
2023/01/31 05:32:30;;;;;;;11.30;8.80;;;;;;;1.04;59.17;94583.81;5051946;28;20205;-70
2023/01/31 05:34:55;;;;;;;13.00;9.50;;;;;;;1.01;58.96;94581.44;5053124;28;20220;-70
2023/01/31 05:37:21;;;;;;;11.70;8.97;;;;;;;0.84;59.92;94580.81;5054600;28;20294;-70
2023/01/31 05:39:46;;;;;;;12.03;9.00;;;;;;;0.83;59.70;94592.13;5052534;28;20256;-70
2023/01/31 05:42:11;;;;;;;11.23;9.13;;;;;;;0.94;59.53;94583.63;5053680;28;20275;-69
2023/01/31 05:44:37;;;;;;;12.20;8.83;;;;;;;1.03;59.25;94587.34;5059717;28;20190;-69
2023/01/31 05:47:02;;;;;;;9.40;7.87;;;;;;;1.10;58.99;94581.66;5053745;28;20228;-71
2023/01/31 05:49:32;;;;;;;10.50;8.40;;;;;;;1.09;58.52;94582.56;5058003;28;20227;-69
2023/01/31 05:51:58;;;;;;;11.00;8.37;;;;;;;1.16;58.31;94590.75;5053183;28;20234;-69
2023/01/31 05:54:23;;;;;;;11.53;8.33;;;;;;;1.12;58.86;94593.66;5054207;28;20222;-71
2023/01/31 05:56:48;;;;;;;10.00;8.00;;;;;;;1.09;59.18;94590.31;5056114;28;20189;-68
2023/01/31 05:59:14;;;;;;;12.30;8.70;;;;;;;0.78;59.98;94593.38;5056778;28;20223;-69
2023/01/31 06:01:39;;;;;;;10.07;8.53;;;;;;;1.11;59.23;94587.66;5055286;28;20228;-70
2023/01/31 06:04:05;;;;;;;11.23;8.27;;;;;;;1.09;59.53;94597.28;5057540;28;20229;-69
2023/01/31 06:06:59;;;;;;;10.63;8.73;;;;;;;1.27;58.91;94598.59;5053708;28;20262;-70
2023/01/31 06:09:25;;;;;;;11.30;9.03;;;;;;;1.31;58.99;94599.25;4989715;28;20294;-68
2023/01/31 06:11:50;;;;;;;11.70;8.60;;;;;;;1.32;59.07;94604.31;4982772;28;20290;-69
2023/01/31 06:14:16;;;;;;;12.60;8.33;;;;;;;1.37;58.71;94611.75;4975662;28;20227;-69
2023/01/31 06:16:41;;;;;;;11.00;7.93;;;;;;;1.26;59.11;94607.31;4978974;28;20326;-69
2023/01/31 06:19:06;;;;;;;12.00;8.10;;;;;;;1.24;58.99;94614.38;4986543;28;20285;-69
2023/01/31 06:21:32;;;;;;;22.73;9.30;;;;;;;1.12;59.75;94620.38;4974775;28;20271;-68
2023/01/31 06:23:57;;;;;;;10.00;7.43;;;;;;;1.23;59.51;94622.22;4973861;28;20239;-66
2023/01/31 06:26:23;;;;;;;10.97;8.27;;;;;;;1.47;59.04;94630.06;4976551;28;20333;-70
2023/01/31 06:28:49;;;;;;;11.33;8.13;;;;;;;1.59;58.12;94625.81;4974139;28;20373;-70
2023/01/31 06:31:14;;;;;;;10.07;7.57;;;;;;;1.59;58.34;94629.22;4975425;28;20239;-70
2023/01/31 06:33:40;;;;;;;11.17;8.17;;;;;;;1.47;58.63;94630.91;4971744;28;20310;-70
2023/01/31 06:36:06;;;;;;;10.50;8.20;;;;;;;1.16;59.66;94615.81;4981000;28;20204;-69
2023/01/31 06:38:32;;;;;;;10.17;8.40;;;;;;;1.40;59.28;94628.84;4973562;28;20262;-70
2023/01/31 06:40:57;;;;;;;11.03;8.90;;;;;;;1.50;59.12;94622.09;4971988;28;20230;-70
2023/01/31 06:43:23;;;;;;;14.00;9.43;;;;;;;1.45;59.37;94632.78;4972102;28;20321;-70
2023/01/31 06:45:48;;;;;;;14.80;9.87;;;;;;;1.58;59.08;94630.19;4991806;28;20222;-71
2023/01/31 06:48:14;;;;;;;12.63;9.50;;;;;;;1.44;59.42;94631.09;5048265;28;20214;-71
2023/01/31 06:50:40;;;;;;;12.90;9.57;;;;;;;1.39;59.89;94628.03;5057768;28;20216;-70
2023/01/31 06:53:06;;;;;;;10.73;8.77;;;;;;;1.49;59.44;94641.16;5052693;28;20245;-68
2023/01/31 06:55:32;;;;;;;11.63;9.20;;;;;;;1.47;59.76;94643.88;5051745;28;20456;-68
2023/01/31 06:57:57;;;;;;;11.70;8.97;;;;;;;1.72;58.71;94645.56;5053729;28;20717;-70
2023/01/31 07:00:24;;;;;;;11.37;9.40;;;;;;;1.74;58.57;94645.47;5045531;28;20240;-71
2023/01/31 07:02:51;;;;;;;13.70;9.43;;;;;;;1.86;58.62;94643.78;5051569;28;20189;-69
2023/01/31 07:05:17;;;;;;;11.53;9.27;;;;;;;1.71;59.06;94643.09;5025309;28;20232;-68
2023/01/31 07:07:42;;;;;;;13.63;8.77;;;;;;;1.69;59.07;94642.38;5034890;28;20245;-68
2023/01/31 07:10:09;;;;;;;12.67;9.37;;;;;;;1.59;58.99;94644.78;5033497;28;20332;-70
2023/01/31 07:12:34;;;;;;;11.07;9.27;;;;;;;1.63;59.42;94654.00;5034666;28;20211;-71
2023/01/31 07:15:00;;;;;;;13.13;9.50;;;;;;;1.61;59.31;94642.09;5037822;28;20218;-72
2023/01/31 07:17:25;;;;;;;12.77;8.80;;;;;;;1.69;59.09;94652.75;5039427;28;20193;-68
2023/01/31 07:19:51;;;;;;;13.07;9.63;;;;;;;1.89;58.20;94652.16;5039480;28;20221;-72
2023/01/31 07:22:17;;;;;;;12.93;9.43;;;;;;;1.87;58.14;94648.03;5041398;28;20221;-68
2023/01/31 07:24:42;;;;;;;11.60;8.40;;;;;;;1.84;58.21;94656.84;5041687;28;20232;-68
2023/01/31 07:27:07;;;;;;;9.40;7.93;;;;;;;1.77;58.46;94648.69;5037137;28;20243;-69
2023/01/31 07:29:33;;;;;;;12.93;9.10;;;;;;;1.83;58.49;94644.00;5037143;28;20213;-72
2023/01/31 07:31:58;;;;;;;10.70;7.87;;;;;;;1.84;58.50;94643.06;5038484;28;20283;-73
2023/01/31 07:34:24;;;;;;;11.27;8.20;;;;;;;1.95;58.12;94646.56;5037604;28;20218;-73
2023/01/31 07:36:50;;;;;;;10.80;8.87;;;;;;;1.81;58.71;94649.28;5041932;28;20221;-70
2023/01/31 07:39:16;;;;;;;11.10;8.20;;;;;;;2.08;58.24;94656.88;5043963;28;20240;-69
2023/01/31 07:41:41;;;;;;;11.53;9.03;;;;;;;1.75;58.86;94645.34;5045336;28;20197;-69
2023/01/31 07:44:11;;;;;;;10.57;8.47;;;;;;;1.98;58.87;94656.72;5049492;28;20221;-69
2023/01/31 07:46:36;;;;;;;11.40;8.70;;;;;;;1.99;58.82;94647.16;5041519;28;20225;-68
2023/01/31 07:49:02;;;;;;;15.07;8.43;;;;;;;1.99;58.44;94647.97;5044408;28;20218;-72
2023/01/31 07:51:28;;;;;;;9.50;8.27;;;;;;;2.14;58.76;94647.84;5044494;28;20232;-70
2023/01/31 07:53:53;;;;;;;10.47;8.50;;;;;;;2.21;58.27;94639.50;5046370;28;20190;-67
2023/01/31 07:56:20;;;;;;;11.43;9.20;;;;;;;2.41;57.89;94642.44;5044239;28;20271;-67
2023/01/31 07:58:47;;;;;;;12.47;8.53;;;;;;;2.37;57.96;94646.16;5044118;28;20281;-71
2023/01/31 08:03:58;;;;;;;9.13;6.80;;;;;;;2.32;58.47;94640.50;5046466;28;20243;-70
2023/01/31 08:06:23;;;;;;;13.07;7.70;;;;;;;2.18;58.96;94634.53;5045365;28;20233;-71
2023/01/31 08:08:49;;;;;;;10.30;8.07;;;;;;;2.27;58.74;94642.59;5048699;28;20196;-73
2023/01/31 08:11:14;;;;;;;11.33;7.80;;;;;;;2.19;59.28;94638.78;5044435;28;20231;-69
2023/01/31 08:13:40;;;;;;;10.30;8.13;;;;;;;2.45;58.47;94637.84;5041966;28;20240;-73
2023/01/31 08:16:08;;;;;;;12.37;8.27;;;;;;;2.37;58.81;94634.03;5049681;28;20282;-71
2023/01/31 08:18:33;;;;;;;11.07;8.30;;;;;;;2.59;58.31;94638.50;5042911;28;20221;-69
2023/01/31 08:20:59;;;;;;;11.37;8.33;;;;;;;2.44;58.09;94639.59;5039106;28;20247;-72
2023/01/31 08:23:26;;;;;;;10.57;8.27;;;;;;;2.54;58.03;94627.63;5031221;28;20222;-69
2023/01/31 08:25:57;;;;;;;10.37;8.33;;;;;;;2.46;58.13;94616.97;5053964;28;20221;-69
2023/01/31 08:28:23;;;;;;;10.40;7.33;;;;;;;2.42;58.67;94620.72;5042071;28;20304;-68
2023/01/31 08:30:48;;;;;;;9.93;8.00;;;;;;;2.59;57.72;94615.13;5039953;28;20310;-69
2023/01/31 08:33:14;;;;;;;10.00;7.73;;;;;;;2.63;57.61;94621.75;5042937;28;20185;-68
2023/01/31 08:35:39;;;;;;;8.93;7.17;;;;;;;2.46;57.95;94614.38;5043526;28;20204;-71
2023/01/31 08:38:05;;;;;;;9.13;6.90;;;;;;;2.58;57.71;94639.41;5044898;28;20221;-68
2023/01/31 08:40:31;;;;;;;8.33;6.80;;;;;;;2.83;56.80;94630.66;5041943;28;20221;-69
2023/01/31 08:42:59;;;;;;;7.20;6.30;;;;;;;2.88;56.47;94625.09;5053729;28;20240;-68
2023/01/31 08:45:25;;;;;;;8.87;6.73;;;;;;;2.95;56.33;94628.91;5042912;28;20228;-67
2023/01/31 08:47:59;;;;;;;7.97;6.20;;;;;;;2.98;56.33;94623.47;5041307;28;20209;-68
2023/01/31 08:50:27;;;;;;;11.57;7.73;;;;;;;2.94;56.33;94632.44;5044404;28;20221;-68
2023/01/31 08:52:55;;;;;;;8.13;6.20;;;;;;;2.71;56.84;94620.34;5040471;28;20251;-68
2023/01/31 08:55:22;;;;;;;7.17;6.07;;;;;;;2.85;57.03;94626.16;5042482;28;20239;-68
2023/01/31 08:57:48;;;;;;;6.90;5.87;;;;;;;2.74;57.26;94630.50;5037641;28;20221;-67
2023/01/31 09:00:15;;;;;;;7.83;6.27;;;;;;;2.67;57.71;94626.69;5044434;28;20194;-68
2023/01/31 09:02:40;;;;;;;6.17;5.57;;;;;;;2.90;56.68;94617.22;5047132;28;20207;-67
2023/01/31 09:05:07;;;;;;;7.60;5.70;;;;;;;2.91;56.84;94635.25;5045402;28;20217;-66
2023/01/31 09:07:33;;;;;;;6.67;5.60;;;;;;;2.80;56.67;94632.63;5040567;28;20374;-68
2023/01/31 09:09:59;;;;;;;8.77;6.30;;;;;;;3.05;56.16;94626.44;5027239;28;20233;-71
2023/01/31 09:12:24;;;;;;;7.87;6.17;;;;;;;3.09;56.00;94633.88;5040682;28;20225;-71
2023/01/31 09:14:51;;;;;;;6.23;5.07;;;;;;;3.33;55.39;94634.75;5042358;28;20201;-71
2023/01/31 09:17:17;;;;;;;6.83;5.63;;;;;;;3.56;54.23;94635.59;5041713;28;20233;-71
2023/01/31 09:19:43;;;;;;;6.20;4.97;;;;;;;3.53;54.68;94634.88;5040652;28;20238;-72
2023/01/31 09:22:08;;;;;;;6.50;4.87;;;;;;;3.49;54.16;94623.03;5044110;28;20300;-72
2023/01/31 09:24:34;;;;;;;7.77;5.03;;;;;;;3.21;54.71;94621.75;5043636;28;20257;-69
2023/01/31 09:26:59;;;;;;;7.60;5.27;;;;;;;3.35;55.56;94614.66;5041424;28;20251;-69
2023/01/31 09:29:26;;;;;;;5.73;4.30;;;;;;;3.46;54.25;94617.25;5038343;28;20210;-70
2023/01/31 09:31:52;;;;;;;6.67;4.37;;;;;;;3.73;53.35;94625.50;5039280;28;20221;-70
2023/01/31 09:34:18;;;;;;;5.63;4.10;;;;;;;3.65;53.37;94630.47;5044963;28;20214;-68
2023/01/31 09:36:44;;;;;;;6.30;4.87;;;;;;;3.63;53.47;94608.13;5041628;28;20236;-70
2023/01/31 09:39:12;;;;;;;6.47;4.80;;;;;;;3.51;54.32;94596.94;5039960;28;20243;-72
2023/01/31 09:41:50;;;;;;;6.23;4.80;;;;;;;3.73;54.12;94593.47;5044603;28;20196;-69
2023/01/31 09:44:27;;;;;;;8.30;5.10;;;;;;;4.13;53.36;94587.72;5036423;28;20221;-73
2023/01/31 09:47:01;;;;;;;7.83;5.20;;;;;;;4.26;52.35;94593.59;5041006;28;20209;-70
2023/01/31 09:49:31;;;;;;;5.47;4.20;;;;;;;4.42;52.11;94573.16;5038095;28;20225;-70
2023/01/31 09:51:59;;;;;;;6.23;4.43;;;;;;;4.49;51.52;94578.72;5037680;28;20221;-69
2023/01/31 09:54:33;;;;;;;6.57;4.00;;;;;;;4.34;51.99;94578.16;5034101;28;20224;-70
2023/01/31 09:57:10;;;;;;;4.13;3.53;;;;;;;4.44;51.32;94593.88;5042322;28;20193;-70
2023/01/31 09:59:39;;;;;;;5.63;3.80;;;;;;;4.34;51.80;94583.38;5044725;28;20280;-69
2023/01/31 10:02:23;;;;;;;4.00;3.60;;;;;;;4.35;51.72;94587.63;5041916;28;20229;-70
2023/01/31 10:05:13;;;;;;;3.67;3.30;;;;;;;4.46;51.59;94599.75;5044172;28;20233;-70
2023/01/31 10:07:58;;;;;;;5.40;3.73;;;;;;;4.36;51.89;94593.69;5038961;28;20287;-68
2023/01/31 10:10:51;;;;;;;6.80;3.97;;;;;;;4.27;52.35;94600.44;5048599;28;20244;-69
2023/01/31 10:13:28;;;;;;;4.57;3.87;;;;;;;4.54;51.10;94586.13;5037733;28;20217;-69
2023/01/31 10:16:12;;;;;;;5.80;4.17;;;;;;;4.27;52.39;94582.22;5045375;28;20327;-68
2023/01/31 10:18:45;;;;;;;5.33;3.53;;;;;;;4.38;52.53;94574.38;5042293;28;20228;-68
2023/01/31 10:21:38;;;;;;;6.43;4.40;;;;;;;4.66;52.32;94589.50;5041326;28;20272;-69
2023/01/31 10:24:12;;;;;;;4.50;3.83;;;;;;;4.63;52.82;94578.38;4989496;28;20278;-70
2023/01/31 10:26:40;;;;;;;4.17;3.63;;;;;;;4.69;51.22;94587.47;4987442;28;20205;-70
2023/01/31 10:29:27;;;;;;;4.77;3.87;;;;;;;4.81;50.92;94583.88;4988179;28;20247;-72
2023/01/31 10:31:52;;;;;;;4.50;3.80;;;;;;;4.83;50.13;94594.16;4986673;28;20237;-67
2023/01/31 10:34:18;;;;;;;3.57;3.27;;;;;;;4.73;50.46;94568.06;5003096;28;20231;-71
2023/01/31 10:37:03;;;;;;;3.90;3.53;;;;;;;4.58;50.94;94580.53;5001631;28;20254;-73
2023/01/31 10:39:51;;;;;;;3.50;3.20;;;;;;;3.96;51.74;94571.69;4972384;28;20234;-74
2023/01/31 10:42:25;;;;;;;4.23;3.20;;;;;;;4.24;51.83;94571.22;4987470;28;20240;-72
2023/01/31 10:44:54;;;;;;;4.90;3.67;;;;;;;4.39;51.33;94572.59;4990735;28;20221;-73
2023/01/31 10:47:28;;;;;;;4.67;3.80;;;;;;;4.46;51.30;94576.34;5005496;28;20234;-70
2023/01/31 10:49:53;;;;;;;3.77;3.47;;;;;;;4.40;51.53;94589.84;4990184;28;20230;-70
2023/01/31 10:52:27;;;;;;;4.10;3.67;;;;;;;4.44;52.08;94580.88;5007656;28;20714;-70
2023/01/31 10:55:04;;;;;;;4.30;3.60;;;;;;;4.50;51.32;94590.75;5006263;28;20285;-70
2023/01/31 10:57:30;;;;;;;6.07;3.77;;;;;;;4.49;51.88;94583.06;5004452;28;20281;-70
2023/01/31 10:59:56;;;;;;;4.50;4.07;;;;;;;4.53;52.24;94589.69;5010529;28;20191;-70
2023/01/31 11:02:27;;;;;;;4.50;3.80;;;;;;;4.41;52.37;94581.94;5050742;28;20200;-71
2023/01/31 11:04:56;;;;;;;4.03;3.63;;;;;;;4.54;51.58;94592.16;5042738;28;20260;-70
2023/01/31 11:07:22;;;;;;;4.20;3.80;;;;;;;4.45;51.67;94587.72;5044133;28;20229;-70
2023/01/31 11:09:52;;;;;;;4.20;3.47;;;;;;;3.82;52.88;94590.13;5046026;28;20225;-70
2023/01/31 11:12:19;;;;;;;5.13;3.43;;;;;;;4.03;52.58;94592.00;5040823;28;20465;-70
2023/01/31 11:14:45;;;;;;;3.80;3.43;;;;;;;3.48;54.05;94578.97;5056197;28;20226;-70
2023/01/31 11:17:19;;;;;;;3.33;3.03;;;;;;;3.61;54.14;94591.81;5048186;28;20317;-69
2023/01/31 11:19:51;;;;;;;4.47;3.50;;;;;;;3.69;53.90;94592.91;5048493;28;20227;-69
2023/01/31 11:22:34;;;;;;;3.60;3.20;;;;;;;3.87;53.16;94579.38;5030824;28;20247;-70
2023/01/31 11:25:03;;;;;;;4.20;3.53;;;;;;;3.79;53.99;94595.59;5046560;28;20252;-69
2023/01/31 11:27:41;;;;;;;3.97;3.57;;;;;;;3.86;54.13;94593.34;5048306;28;20221;-71
2023/01/31 11:30:20;;;;;;;4.10;3.77;;;;;;;3.75;54.34;94589.81;5051280;28;20212;-71
2023/01/31 11:32:46;;;;;;;4.70;4.23;;;;;;;3.36;55.95;94593.75;5051627;28;20193;-72
2023/01/31 11:35:12;;;;;;;5.00;3.97;;;;;;;3.30;56.11;94591.63;5049683;28;20304;-71
2023/01/31 11:37:49;;;;;;;4.97;4.10;;;;;;;3.69;55.23;94595.50;5050067;28;20320;-68
2023/01/31 11:40:14;;;;;;;4.30;3.90;;;;;;;3.84;55.08;94603.03;5042239;28;20248;-69
2023/01/31 11:42:55;;;;;;;5.77;4.00;;;;;;;3.74;55.42;94588.16;5051402;28;20275;-70
2023/01/31 11:45:26;;;;;;;4.13;3.73;;;;;;;3.72;55.57;94578.84;5047661;28;20221;-72
2023/01/31 11:47:54;;;;;;;4.57;4.10;;;;;;;3.75;55.90;94595.00;5047918;28;20189;-69
2023/01/31 11:50:25;;;;;;;3.67;3.23;;;;;;;3.81;55.66;94585.91;5047383;28;20271;-69